sensor_id;sensor_type;location;lat;lon;timestamp;pressure;altitude;pressure_sealevel;temperature;humidity
76753;BME280;65687;51.308;16.916;2023-05-29T00:02:07;99926.55;;;10.82;58.10
76753;BME280;65687;51.308;16.916;2023-05-29T00:07:09;99920.89;;;10.75;57.94
76753;BME280;65687;51.308;16.916;2023-05-29T00:12:11;99920.90;;;10.70;58.36
76753;BME280;65687;51.308;16.916;2023-05-29T00:17:13;99920.33;;;10.67;58.55
76753;BME280;65687;51.308;16.916;2023-05-29T00:22:16;99920.30;;;10.64;58.81
76753;BME280;65687;51.308;16.916;2023-05-29T00:27:18;99911.77;;;10.63;58.97
76753;BME280;65687;51.308;16.916;2023-05-29T00:32:20;99908.20;;;10.63;58.85
76753;BME280;65687;51.308;16.916;2023-05-29T00:37:21;99906.80;;;10.64;58.80
76753;BME280;65687;51.308;16.916;2023-05-29T00:42:23;99903.25;;;10.67;58.90
76753;BME280;65687;51.308;16.916;2023-05-29T00:47:25;99903.16;;;10.68;58.78
76753;BME280;65687;51.308;16.916;2023-05-29T00:52:27;99905.11;;;10.69;58.07
76753;BME280;65687;51.308;16.916;2023-05-29T00:57:29;99902.00;;;10.71;57.83
76753;BME280;65687;51.308;16.916;2023-05-29T01:02:31;99900.96;;;10.70;57.90
76753;BME280;65687;51.308;16.916;2023-05-29T01:07:32;99894.73;;;10.71;58.51
76753;BME280;65687;51.308;16.916;2023-05-29T01:18:08;99894.69;;;10.78;58.54
76753;BME280;65687;51.308;16.916;2023-05-29T01:28:55;99889.54;;;10.87;58.04
76753;BME280;65687;51.308;16.916;2023-05-29T01:33:59;99891.46;;;10.91;58.21
76753;BME280;65687;51.308;16.916;2023-05-29T01:39:02;99889.31;;;10.91;57.92
76753;BME280;65687;51.308;16.916;2023-05-29T01:44:07;99887.77;;;10.91;58.45
76753;BME280;65687;51.308;16.916;2023-05-29T01:49:13;99887.77;;;10.91;59.22
76753;BME280;65687;51.308;16.916;2023-05-29T01:54:16;99887.10;;;10.91;59.89
76753;BME280;65687;51.308;16.916;2023-05-29T01:59:18;99888.80;;;10.91;61.04
76753;BME280;65687;51.308;16.916;2023-05-29T02:04:21;99883.66;;;10.90;60.69
76753;BME280;65687;51.308;16.916;2023-05-29T02:09:23;99878.42;;;10.88;60.93
76753;BME280;65687;51.308;16.916;2023-05-29T02:14:24;99879.17;;;10.84;60.76
76753;BME280;65687;51.308;16.916;2023-05-29T02:19:27;99880.25;;;10.79;61.91
76753;BME280;65687;51.308;16.916;2023-05-29T02:24:28;99878.19;;;10.76;61.95
76753;BME280;65687;51.308;16.916;2023-05-29T02:29:30;99880.75;;;10.74;61.64
76753;BME280;65687;51.308;16.916;2023-05-29T02:34:32;99885.45;;;10.71;62.01
76753;BME280;65687;51.308;16.916;2023-05-29T02:39:34;99885.23;;;10.67;62.75
76753;BME280;65687;51.308;16.916;2023-05-29T02:44:36;99887.37;;;10.64;62.01
76753;BME280;65687;51.308;16.916;2023-05-29T02:49:37;99887.70;;;10.61;62.19
76753;BME280;65687;51.308;16.916;2023-05-29T02:54:39;99890.52;;;10.58;62.11
76753;BME280;65687;51.308;16.916;2023-05-29T02:59:40;99891.98;;;10.55;62.62
76753;BME280;65687;51.308;16.916;2023-05-29T03:04:42;99890.44;;;10.52;63.21
76753;BME280;65687;51.308;16.916;2023-05-29T03:09:44;99892.14;;;10.47;63.53
76753;BME280;65687;51.308;16.916;2023-05-29T03:14:45;99892.27;;;10.41;63.93
76753;BME280;65687;51.308;16.916;2023-05-29T03:19:47;99894.33;;;10.36;64.48
76753;BME280;65687;51.308;16.916;2023-05-29T03:24:49;99898.45;;;10.35;64.65
76753;BME280;65687;51.308;16.916;2023-05-29T03:29:50;99903.92;;;10.36;64.27
76753;BME280;65687;51.308;16.916;2023-05-29T03:34:54;99902.91;;;10.39;64.60
76753;BME280;65687;51.308;16.916;2023-05-29T03:39:56;99906.22;;;10.37;64.71
76753;BME280;65687;51.308;16.916;2023-05-29T03:44:58;99915.36;;;10.33;65.53
76753;BME280;65687;51.308;16.916;2023-05-29T03:50:00;99920.18;;;10.26;66.09
76753;BME280;65687;51.308;16.916;2023-05-29T03:55:02;99923.41;;;10.22;66.20
76753;BME280;65687;51.308;16.916;2023-05-29T04:00:04;99925.02;;;10.18;66.14
76753;BME280;65687;51.308;16.916;2023-05-29T04:05:06;99921.96;;;10.16;66.82
76753;BME280;65687;51.308;16.916;2023-05-29T04:10:09;99927.96;;;10.10;66.65
76753;BME280;65687;51.308;16.916;2023-05-29T04:15:11;99929.88;;;10.09;66.66
76753;BME280;65687;51.308;16.916;2023-05-29T04:20:12;99932.77;;;10.09;67.10
76753;BME280;65687;51.308;16.916;2023-05-29T04:25:14;99936.41;;;10.08;67.41
76753;BME280;65687;51.308;16.916;2023-05-29T04:30:17;99933.16;;;10.12;67.40
76753;BME280;65687;51.308;16.916;2023-05-29T04:35:19;99935.63;;;10.19;67.52
76753;BME280;65687;51.308;16.916;2023-05-29T04:40:20;99937.89;;;10.27;67.56
76753;BME280;65687;51.308;16.916;2023-05-29T04:45:22;99950.20;;;10.36;67.87
76753;BME280;65687;51.308;16.916;2023-05-29T04:50:25;99954.05;;;10.43;67.64
76753;BME280;65687;51.308;16.916;2023-05-29T04:55:27;99955.95;;;10.49;67.71
76753;BME280;65687;51.308;16.916;2023-05-29T05:00:29;99954.02;;;10.58;67.93
76753;BME280;65687;51.308;16.916;2023-05-29T05:05:30;99949.15;;;10.66;67.75
76753;BME280;65687;51.308;16.916;2023-05-29T05:10:32;99950.27;;;10.73;67.59
76753;BME280;65687;51.308;16.916;2023-05-29T05:15:34;99949.64;;;10.81;68.09
76753;BME280;65687;51.308;16.916;2023-05-29T05:20:35;99953.83;;;10.88;68.46
76753;BME280;65687;51.308;16.916;2023-05-29T05:25:37;99956.48;;;10.98;68.56
76753;BME280;65687;51.308;16.916;2023-05-29T05:30:39;99958.24;;;11.12;68.79
76753;BME280;65687;51.308;16.916;2023-05-29T05:35:43;99957.93;;;11.28;69.12
76753;BME280;65687;51.308;16.916;2023-05-29T05:40:45;99955.58;;;11.44;69.44
76753;BME280;65687;51.308;16.916;2023-05-29T05:45:47;99960.66;;;11.60;69.49
76753;BME280;65687;51.308;16.916;2023-05-29T05:50:49;99961.71;;;11.74;69.72
76753;BME280;65687;51.308;16.916;2023-05-29T05:55:51;99965.83;;;11.88;69.48
76753;BME280;65687;51.308;16.916;2023-05-29T06:00:52;99965.52;;;12.03;69.67
76753;BME280;65687;51.308;16.916;2023-05-29T06:05:54;99962.04;;;12.18;69.86
76753;BME280;65687;51.308;16.916;2023-05-29T06:10:56;99967.39;;;12.33;69.73
76753;BME280;65687;51.308;16.916;2023-05-29T06:15:58;99968.59;;;12.54;69.36
76753;BME280;65687;51.308;16.916;2023-05-29T06:20:59;99970.30;;;12.77;69.46
76753;BME280;65687;51.308;16.916;2023-05-29T06:26:02;99976.70;;;12.99;69.21
76753;BME280;65687;51.308;16.916;2023-05-29T06:31:04;99976.59;;;13.24;69.50
76753;BME280;65687;51.308;16.916;2023-05-29T06:36:06;99975.73;;;13.47;69.27
76753;BME280;65687;51.308;16.916;2023-05-29T06:41:08;99982.13;;;13.81;67.39
76753;BME280;65687;51.308;16.916;2023-05-29T06:46:10;99984.43;;;14.07;67.56
76753;BME280;65687;51.308;16.916;2023-05-29T06:51:12;99983.02;;;14.29;68.02
76753;BME280;65687;51.308;16.916;2023-05-29T06:56:14;99983.26;;;14.49;67.48
76753;BME280;65687;51.308;16.916;2023-05-29T07:01:16;99985.13;;;14.69;66.73
76753;BME280;65687;51.308;16.916;2023-05-29T07:06:18;99985.80;;;14.89;65.96
76753;BME280;65687;51.308;16.916;2023-05-29T07:11:20;99987.21;;;15.10;67.26
76753;BME280;65687;51.308;16.916;2023-05-29T07:16:22;99988.01;;;15.34;61.92
76753;BME280;65687;51.308;16.916;2023-05-29T07:21:24;99986.58;;;15.71;55.41
76753;BME280;65687;51.308;16.916;2023-05-29T07:26:27;99991.73;;;16.09;53.98
76753;BME280;65687;51.308;16.916;2023-05-29T07:31:29;99991.89;;;16.43;51.41
76753;BME280;65687;51.308;16.916;2023-05-29T07:36:30;99991.35;;;16.81;50.17
76753;BME280;65687;51.308;16.916;2023-05-29T07:41:35;99996.21;;;17.15;48.93
76753;BME280;65687;51.308;16.916;2023-05-29T07:46:36;99997.36;;;17.43;47.64
76753;BME280;65687;51.308;16.916;2023-05-29T07:51:38;100003.56;;;17.66;47.73
76753;BME280;65687;51.308;16.916;2023-05-29T07:56:39;100002.45;;;17.94;47.78
76753;BME280;65687;51.308;16.916;2023-05-29T08:01:42;100004.90;;;18.28;45.24
76753;BME280;65687;51.308;16.916;2023-05-29T08:06:45;100006.48;;;18.61;43.43
76753;BME280;65687;51.308;16.916;2023-05-29T08:11:46;100011.05;;;18.89;42.46
76753;BME280;65687;51.308;16.916;2023-05-29T08:16:48;100013.08;;;19.18;42.83
76753;BME280;65687;51.308;16.916;2023-05-29T08:21:50;100013.59;;;19.49;40.83
76753;BME280;65687;51.308;16.916;2023-05-29T08:26:52;100013.55;;;20.03;40.98
76753;BME280;65687;51.308;16.916;2023-05-29T08:31:55;100012.98;;;20.23;40.08
76753;BME280;65687;51.308;16.916;2023-05-29T08:36:56;100017.52;;;20.43;40.16
76753;BME280;65687;51.308;16.916;2023-05-29T08:42:50;100013.94;;;20.62;38.73
76753;BME280;65687;51.308;16.916;2023-05-29T08:47:33;100014.04;;;20.92;38.71
76753;BME280;65687;51.308;16.916;2023-05-29T08:52:35;100007.27;;;21.21;38.19
76753;BME280;65687;51.308;16.916;2023-05-29T08:57:40;100007.42;;;21.41;38.12
76753;BME280;65687;51.308;16.916;2023-05-29T09:02:44;100012.83;;;21.59;36.52
76753;BME280;65687;51.308;16.916;2023-05-29T09:07:46;100012.69;;;21.75;35.53
76753;BME280;65687;51.308;16.916;2023-05-29T09:12:48;100013.98;;;21.94;35.10
76753;BME280;65687;51.308;16.916;2023-05-29T09:17:57;100010.46;;;22.13;35.33
76753;BME280;65687;51.308;16.916;2023-05-29T09:23:02;100009.73;;;22.35;34.44
76753;BME280;65687;51.308;16.916;2023-05-29T09:28:06;100017.48;;;22.53;33.58
76753;BME280;65687;51.308;16.916;2023-05-29T09:33:14;100016.29;;;22.63;33.73
76753;BME280;65687;51.308;16.916;2023-05-29T09:38:17;100013.70;;;22.71;33.65
76753;BME280;65687;51.308;16.916;2023-05-29T09:43:19;100015.64;;;22.65;33.81
76753;BME280;65687;51.308;16.916;2023-05-29T09:48:25;100013.41;;;22.65;34.75
76753;BME280;65687;51.308;16.916;2023-05-29T09:53:27;100014.38;;;22.70;34.62
76753;BME280;65687;51.308;16.916;2023-05-29T09:58:32;100011.66;;;22.81;34.31
76753;BME280;65687;51.308;16.916;2023-05-29T10:03:35;100005.45;;;22.89;34.15
76753;BME280;65687;51.308;16.916;2023-05-29T10:08:37;100007.44;;;23.04;35.05
76753;BME280;65687;51.308;16.916;2023-05-29T10:13:45;100004.23;;;23.08;33.74
76753;BME280;65687;51.308;16.916;2023-05-29T10:18:55;100005.30;;;23.10;33.88
76753;BME280;65687;51.308;16.916;2023-05-29T10:23:57;99999.59;;;22.99;34.07
76753;BME280;65687;51.308;16.916;2023-05-29T10:29:46;99997.06;;;22.92;34.95
76753;BME280;65687;51.308;16.916;2023-05-29T10:40:11;99991.36;;;23.01;33.67
76753;BME280;65687;51.308;16.916;2023-05-29T10:50:45;99992.35;;;23.09;35.24
76753;BME280;65687;51.308;16.916;2023-05-29T10:55:47;99989.48;;;23.02;33.17
76753;BME280;65687;51.308;16.916;2023-05-29T11:00:48;99987.58;;;22.92;32.82
76753;BME280;65687;51.308;16.916;2023-05-29T11:06:07;99985.42;;;22.78;33.65
76753;BME280;65687;51.308;16.916;2023-05-29T11:11:15;99982.87;;;22.79;35.15
76753;BME280;65687;51.308;16.916;2023-05-29T11:16:36;99977.57;;;22.64;32.91
76753;BME280;65687;51.308;16.916;2023-05-29T11:21:54;99971.28;;;22.58;33.23
76753;BME280;65687;51.308;16.916;2023-05-29T11:27:01;99975.38;;;22.57;33.10
76753;BME280;65687;51.308;16.916;2023-05-29T11:32:13;99971.59;;;22.39;34.81
76753;BME280;65687;51.308;16.916;2023-05-29T11:37:16;99977.21;;;22.36;35.57
76753;BME280;65687;51.308;16.916;2023-05-29T11:42:18;99978.88;;;22.42;33.59
76753;BME280;65687;51.308;16.916;2023-05-29T11:47:20;99968.11;;;22.38;33.13
76753;BME280;65687;51.308;16.916;2023-05-29T11:52:28;99966.90;;;22.28;34.92
76753;BME280;65687;51.308;16.916;2023-05-29T11:57:30;99965.15;;;22.26;35.29
76753;BME280;65687;51.308;16.916;2023-05-29T12:02:31;99968.88;;;22.07;34.71
76753;BME280;65687;51.308;16.916;2023-05-29T12:07:37;99969.74;;;21.92;34.64
76753;BME280;65687;51.308;16.916;2023-05-29T12:12:39;99960.87;;;21.80;33.49
76753;BME280;65687;51.308;16.916;2023-05-29T12:17:41;99960.98;;;21.70;33.66
76753;BME280;65687;51.308;16.916;2023-05-29T12:22:44;99953.08;;;21.77;33.01
76753;BME280;65687;51.308;16.916;2023-05-29T12:27:48;99942.64;;;21.79;32.61
76753;BME280;65687;51.308;16.916;2023-05-29T12:32:51;99943.45;;;21.86;33.44
76753;BME280;65687;51.308;16.916;2023-05-29T12:37:55;99939.41;;;21.97;33.66
76753;BME280;65687;51.308;16.916;2023-05-29T12:42:59;99937.63;;;22.10;35.14
76753;BME280;65687;51.308;16.916;2023-05-29T12:48:02;99933.14;;;22.17;33.62
76753;BME280;65687;51.308;16.916;2023-05-29T12:53:09;99929.77;;;22.12;33.61
76753;BME280;65687;51.308;16.916;2023-05-29T12:58:12;99931.38;;;22.16;33.48
76753;BME280;65687;51.308;16.916;2023-05-29T13:03:14;99929.48;;;22.16;33.63
76753;BME280;65687;51.308;16.916;2023-05-29T13:08:16;99931.55;;;22.07;34.90
76753;BME280;65687;51.308;16.916;2023-05-29T13:13:19;99928.91;;;21.89;35.27
76753;BME280;65687;51.308;16.916;2023-05-29T13:18:21;99929.19;;;21.78;35.35
76753;BME280;65687;51.308;16.916;2023-05-29T13:23:23;99918.48;;;21.68;35.24
76753;BME280;65687;51.308;16.916;2023-05-29T13:28:26;99913.32;;;21.68;35.49
76753;BME280;65687;51.308;16.916;2023-05-29T13:33:28;99905.20;;;21.66;35.55
76753;BME280;65687;51.308;16.916;2023-05-29T13:38:30;99898.38;;;21.68;35.40
76753;BME280;65687;51.308;16.916;2023-05-29T13:43:31;99899.56;;;21.75;35.92
76753;BME280;65687;51.308;16.916;2023-05-29T13:48:33;99898.23;;;21.78;35.88
76753;BME280;65687;51.308;16.916;2023-05-29T13:53:35;99892.02;;;21.77;36.05
76753;BME280;65687;51.308;16.916;2023-05-29T13:58:36;99890.12;;;21.84;36.34
76753;BME280;65687;51.308;16.916;2023-05-29T14:03:38;99888.08;;;21.94;35.48
76753;BME280;65687;51.308;16.916;2023-05-29T14:08:40;99887.27;;;21.96;35.41
76753;BME280;65687;51.308;16.916;2023-05-29T14:13:42;99884.97;;;22.00;35.28
76753;BME280;65687;51.308;16.916;2023-05-29T14:18:43;99884.34;;;22.12;34.86
76753;BME280;65687;51.308;16.916;2023-05-29T14:23:45;99883.52;;;22.06;34.23
76753;BME280;65687;51.308;16.916;2023-05-29T14:28:47;99882.29;;;21.96;34.68
76753;BME280;65687;51.308;16.916;2023-05-29T14:33:49;99882.73;;;21.93;35.66
76753;BME280;65687;51.308;16.916;2023-05-29T14:38:50;99882.56;;;22.01;36.46
76753;BME280;65687;51.308;16.916;2023-05-29T14:43:52;99881.69;;;22.00;36.39
76753;BME280;65687;51.308;16.916;2023-05-29T14:48:53;99880.09;;;21.89;36.86
76753;BME280;65687;51.308;16.916;2023-05-29T14:53:55;99878.80;;;21.86;37.32
76753;BME280;65687;51.308;16.916;2023-05-29T14:58:57;99878.44;;;21.77;36.74
76753;BME280;65687;51.308;16.916;2023-05-29T15:03:58;99881.88;;;21.69;36.96
76753;BME280;65687;51.308;16.916;2023-05-29T15:09:00;99883.52;;;21.64;36.71
76753;BME280;65687;51.308;16.916;2023-05-29T15:14:02;99880.29;;;21.58;36.98
76753;BME280;65687;51.308;16.916;2023-05-29T15:19:03;99877.39;;;21.51;37.99
76753;BME280;65687;51.308;16.916;2023-05-29T15:24:05;99876.61;;;21.47;37.29
76753;BME280;65687;51.308;16.916;2023-05-29T15:29:07;99882.33;;;21.41;37.49
76753;BME280;65687;51.308;16.916;2023-05-29T15:34:08;99882.09;;;21.31;37.69
76753;BME280;65687;51.308;16.916;2023-05-29T15:39:11;99883.15;;;21.32;37.90
76753;BME280;65687;51.308;16.916;2023-05-29T15:44:13;99886.25;;;21.32;38.68
76753;BME280;65687;51.308;16.916;2023-05-29T15:49:14;99879.30;;;21.30;38.48
76753;BME280;65687;51.308;16.916;2023-05-29T15:54:16;99879.41;;;21.26;39.02
76753;BME280;65687;51.308;16.916;2023-05-29T15:59:17;99880.32;;;21.21;39.18
76753;BME280;65687;51.308;16.916;2023-05-29T16:04:19;99879.62;;;21.14;39.20
76753;BME280;65687;51.308;16.916;2023-05-29T16:09:21;99879.80;;;21.08;39.10
76753;BME280;65687;51.308;16.916;2023-05-29T16:14:23;99883.32;;;21.03;39.11
76753;BME280;65687;51.308;16.916;2023-05-29T16:19:25;99881.50;;;21.00;39.51
76753;BME280;65687;51.308;16.916;2023-05-29T16:24:27;99884.02;;;20.96;39.84
76753;BME280;65687;51.308;16.916;2023-05-29T16:29:28;99888.16;;;20.91;39.94
76753;BME280;65687;51.308;16.916;2023-05-29T16:34:30;99887.71;;;20.86;40.78
76753;BME280;65687;51.308;16.916;2023-05-29T16:39:32;99891.93;;;20.84;41.13
76753;BME280;65687;51.308;16.916;2023-05-29T16:44:34;99891.29;;;20.79;40.93
76753;BME280;65687;51.308;16.916;2023-05-29T16:49:35;99889.18;;;20.69;41.09
76753;BME280;65687;51.308;16.916;2023-05-29T16:54:37;99892.06;;;20.61;41.76
76753;BME280;65687;51.308;16.916;2023-05-29T16:59:41;99882.52;;;20.51;42.17
76753;BME280;65687;51.308;16.916;2023-05-29T17:04:43;99884.77;;;20.45;42.63
76753;BME280;65687;51.308;16.916;2023-05-29T17:09:44;99890.09;;;20.39;42.41
76753;BME280;65687;51.308;16.916;2023-05-29T17:14:46;99890.21;;;20.31;42.20
76753;BME280;65687;51.308;16.916;2023-05-29T17:19:48;99891.14;;;20.21;43.49
76753;BME280;65687;51.308;16.916;2023-05-29T17:24:49;99888.33;;;20.12;43.64
76753;BME280;65687;51.308;16.916;2023-05-29T17:29:51;99890.79;;;20.02;43.41
76753;BME280;65687;51.308;16.916;2023-05-29T17:34:52;99890.24;;;19.95;43.83
76753;BME280;65687;51.308;16.916;2023-05-29T17:39:54;99888.69;;;19.89;43.43
76753;BME280;65687;51.308;16.916;2023-05-29T17:44:56;99894.95;;;19.80;43.73
76753;BME280;65687;51.308;16.916;2023-05-29T17:49:58;99898.27;;;19.70;44.74
76753;BME280;65687;51.308;16.916;2023-05-29T17:55:02;99898.57;;;19.57;44.61
76753;BME280;65687;51.308;16.916;2023-05-29T18:00:04;99903.47;;;19.44;44.73
76753;BME280;65687;51.308;16.916;2023-05-29T18:05:06;99903.89;;;19.31;44.53
76753;BME280;65687;51.308;16.916;2023-05-29T18:10:09;99908.77;;;19.17;44.70
76753;BME280;65687;51.308;16.916;2023-05-29T18:15:11;99913.61;;;19.08;46.02
76753;BME280;65687;51.308;16.916;2023-05-29T18:20:13;99916.09;;;19.00;45.76
76753;BME280;65687;51.308;16.916;2023-05-29T18:25:16;99921.48;;;18.87;46.68
76753;BME280;65687;51.308;16.916;2023-05-29T18:30:19;99917.30;;;18.69;46.75
76753;BME280;65687;51.308;16.916;2023-05-29T18:35:22;99922.64;;;18.56;46.66
76753;BME280;65687;51.308;16.916;2023-05-29T18:40:24;99925.20;;;18.41;47.05
76753;BME280;65687;51.308;16.916;2023-05-29T18:45:26;99927.85;;;18.19;47.63
76753;BME280;65687;51.308;16.916;2023-05-29T18:50:29;99931.54;;;17.94;48.03
76753;BME280;65687;51.308;16.916;2023-05-29T18:55:30;99933.26;;;17.72;48.33
76753;BME280;65687;51.308;16.916;2023-05-29T19:00:33;99945.27;;;17.48;49.22
76753;BME280;65687;51.308;16.916;2023-05-29T19:05:36;99946.02;;;17.24;49.83
76753;BME280;65687;51.308;16.916;2023-05-29T19:10:37;99949.05;;;17.06;50.59
76753;BME280;65687;51.308;16.916;2023-05-29T19:15:40;99948.81;;;16.87;51.21
76753;BME280;65687;51.308;16.916;2023-05-29T19:20:41;99949.05;;;16.69;51.91
76753;BME280;65687;51.308;16.916;2023-05-29T19:25:44;99955.20;;;16.50;52.40
76753;BME280;65687;51.308;16.916;2023-05-29T19:30:46;99961.50;;;16.30;53.01
76753;BME280;65687;51.308;16.916;2023-05-29T19:35:50;99963.59;;;16.16;53.03
76753;BME280;65687;51.308;16.916;2023-05-29T19:40:52;99968.70;;;16.04;53.46
76753;BME280;65687;51.308;16.916;2023-05-29T19:45:54;99970.71;;;15.93;53.78
76753;BME280;65687;51.308;16.916;2023-05-29T19:50:55;99974.82;;;15.85;54.04
76753;BME280;65687;51.308;16.916;2023-05-29T19:55:56;99986.83;;;15.80;54.41
76753;BME280;65687;51.308;16.916;2023-05-29T20:00:58;99985.80;;;15.72;54.96
76753;BME280;65687;51.308;16.916;2023-05-29T20:06:00;99983.92;;;15.62;55.14
76753;BME280;65687;51.308;16.916;2023-05-29T20:11:05;99986.77;;;15.54;55.49
76753;BME280;65687;51.308;16.916;2023-05-29T20:16:07;99987.30;;;15.44;55.70
76753;BME280;65687;51.308;16.916;2023-05-29T20:21:08;99985.55;;;15.36;55.75
76753;BME280;65687;51.308;16.916;2023-05-29T20:26:10;99989.98;;;15.32;55.97
76753;BME280;65687;51.308;16.916;2023-05-29T20:31:14;99995.77;;;15.25;56.49
76753;BME280;65687;51.308;16.916;2023-05-29T20:36:15;99999.89;;;15.23;56.85
76753;BME280;65687;51.308;16.916;2023-05-29T20:41:18;100003.16;;;15.17;57.43
76753;BME280;65687;51.308;16.916;2023-05-29T20:46:20;100007.41;;;15.13;57.31
76753;BME280;65687;51.308;16.916;2023-05-29T20:51:37;100009.02;;;15.08;57.34
76753;BME280;65687;51.308;16.916;2023-05-29T20:56:39;100010.89;;;15.05;58.08
76753;BME280;65687;51.308;16.916;2023-05-29T21:01:41;100011.79;;;15.06;57.64
76753;BME280;65687;51.308;16.916;2023-05-29T21:06:43;100012.40;;;15.07;57.22
76753;BME280;65687;51.308;16.916;2023-05-29T21:11:45;100012.52;;;15.10;56.30
76753;BME280;65687;51.308;16.916;2023-05-29T21:16:47;100013.48;;;15.09;56.07
76753;BME280;65687;51.308;16.916;2023-05-29T21:21:48;100010.79;;;15.02;57.01
76753;BME280;65687;51.308;16.916;2023-05-29T21:26:50;100015.80;;;14.97;57.79
76753;BME280;65687;51.308;16.916;2023-05-29T21:31:52;100010.42;;;14.95;57.10
76753;BME280;65687;51.308;16.916;2023-05-29T21:36:54;100007.50;;;14.95;56.65
76753;BME280;65687;51.308;16.916;2023-05-29T21:41:55;100003.43;;;14.95;56.36
76753;BME280;65687;51.308;16.916;2023-05-29T21:46:57;100006.45;;;14.97;55.74
76753;BME280;65687;51.308;16.916;2023-05-29T21:51:59;100009.52;;;14.97;55.32
76753;BME280;65687;51.308;16.916;2023-05-29T21:57:00;100019.77;;;14.98;55.28
76753;BME280;65687;51.308;16.916;2023-05-29T22:02:03;100018.42;;;14.98;54.79
76753;BME280;65687;51.308;16.916;2023-05-29T22:07:05;100017.99;;;15.00;54.17
76753;BME280;65687;51.308;16.916;2023-05-29T22:12:07;100018.88;;;15.00;54.22
76753;BME280;65687;51.308;16.916;2023-05-29T22:17:09;100024.52;;;14.98;53.96
76753;BME280;65687;51.308;16.916;2023-05-29T22:22:11;100034.91;;;14.95;54.42
76753;BME280;65687;51.308;16.916;2023-05-29T22:27:14;100037.48;;;14.92;54.77
76753;BME280;65687;51.308;16.916;2023-05-29T22:32:16;100041.87;;;14.88;54.52
76753;BME280;65687;51.308;16.916;2023-05-29T22:37:18;100041.77;;;14.86;54.75
76753;BME280;65687;51.308;16.916;2023-05-29T22:42:20;100037.73;;;14.83;54.77
76753;BME280;65687;51.308;16.916;2023-05-29T22:47:22;100036.77;;;14.78;55.02
76753;BME280;65687;51.308;16.916;2023-05-29T22:52:24;100037.05;;;14.70;54.96
76753;BME280;65687;51.308;16.916;2023-05-29T22:57:26;100037.02;;;14.63;55.32
76753;BME280;65687;51.308;16.916;2023-05-29T23:02:27;100035.75;;;14.55;55.04
76753;BME280;65687;51.308;16.916;2023-05-29T23:07:29;100032.86;;;14.46;55.44
76753;BME280;65687;51.308;16.916;2023-05-29T23:12:31;100037.20;;;14.35;55.98
76753;BME280;65687;51.308;16.916;2023-05-29T23:17:33;100042.27;;;14.22;56.29
76753;BME280;65687;51.308;16.916;2023-05-29T23:22:35;100039.67;;;14.05;56.77
76753;BME280;65687;51.308;16.916;2023-05-29T23:27:39;100038.14;;;13.96;56.93
76753;BME280;65687;51.308;16.916;2023-05-29T23:32:40;100034.15;;;13.88;56.65
76753;BME280;65687;51.308;16.916;2023-05-29T23:37:42;100037.48;;;13.78;56.67
76753;BME280;65687;51.308;16.916;2023-05-29T23:42:43;100037.59;;;13.70;56.66
76753;BME280;65687;51.308;16.916;2023-05-29T23:47:45;100038.44;;;13.61;57.11
76753;BME280;65687;51.308;16.916;2023-05-29T23:52:47;100032.92;;;13.48;57.17
76753;BME280;65687;51.308;16.916;2023-05-29T23:57:48;100034.38;;;13.37;57.47
